createdAt,value
2023-03-12T00:03:48.038Z,11.34
2023-03-12T00:07:53.515Z,11.31
2023-03-12T00:11:55.572Z,11.33
2023-03-12T00:15:57.742Z,11.31
2023-03-12T00:19:59.870Z,11.29
2023-03-12T00:24:02.104Z,11.27
2023-03-12T00:28:04.554Z,11.17
2023-03-12T00:32:07.205Z,11.06
2023-03-12T00:36:09.800Z,11.15
2023-03-12T00:40:12.716Z,11.17
2023-03-12T00:44:15.033Z,11.28
2023-03-12T00:48:17.555Z,11.31
2023-03-12T00:52:19.961Z,11.40
2023-03-12T00:56:22.256Z,11.36
2023-03-12T01:00:24.472Z,11.38
2023-03-12T01:04:27.347Z,11.40
2023-03-12T01:08:30.642Z,11.44
2023-03-12T01:12:33.091Z,11.49
2023-03-12T01:16:35.514Z,11.49
2023-03-12T01:20:37.926Z,11.40
2023-03-12T01:24:40.121Z,11.38
2023-03-12T01:28:42.203Z,11.47
2023-03-12T01:32:44.837Z,11.52
2023-03-12T01:36:48.150Z,11.49
2023-03-12T01:40:50.431Z,11.52
2023-03-12T01:44:52.499Z,11.52
2023-03-12T01:48:57.136Z,11.48
2023-03-12T01:53:00.546Z,11.43
2023-03-12T01:57:06.873Z,11.29
2023-03-12T02:01:09.286Z,11.33
2023-03-12T02:05:41.771Z,11.22
2023-03-12T02:09:52.153Z,11.10
2023-03-12T02:13:56.424Z,10.93
2023-03-12T02:17:58.892Z,10.70
2023-03-12T02:22:01.847Z,10.51
2023-03-12T02:26:05.610Z,10.39
2023-03-12T02:30:08.790Z,10.31
2023-03-12T02:34:11.692Z,9.96
2023-03-12T02:38:42.546Z,9.51
2023-03-12T02:42:45.745Z,9.49
2023-03-12T02:46:51.309Z,9.51
2023-03-12T02:50:53.381Z,9.48
2023-03-12T02:54:58.010Z,9.43
2023-03-12T02:59:01.554Z,9.41
2023-03-12T03:03:06.445Z,9.36
2023-03-12T03:07:08.720Z,9.10
2023-03-12T03:11:15.147Z,9.10
2023-03-12T03:15:18.904Z,9.00
2023-03-12T03:19:21.034Z,8.92
2023-03-12T03:23:23.341Z,8.79
2023-03-12T03:27:25.704Z,8.68
2023-03-12T03:31:28.894Z,8.57
2023-03-12T03:35:31.170Z,8.56
2023-03-12T03:39:34.685Z,8.52
2023-03-12T03:43:37.255Z,8.53
2023-03-12T03:47:40.232Z,8.42
2023-03-12T03:51:45.173Z,8.24
2023-03-12T03:55:52.039Z,8.07
2023-03-12T03:59:54.558Z,8.07
2023-03-12T04:03:57.906Z,8.43
2023-03-12T04:08:03.350Z,8.52
2023-03-12T04:12:08.022Z,8.50
2023-03-12T04:16:13.647Z,8.43
2023-03-12T04:20:16.416Z,8.38
2023-03-12T04:24:20.443Z,8.31
2023-03-12T04:28:24.231Z,8.21
2023-03-12T04:32:26.709Z,8.24
2023-03-12T04:36:29.195Z,8.28
2023-03-12T04:40:31.744Z,8.08
2023-03-12T04:44:35.572Z,8.04
2023-03-12T04:48:39.020Z,7.89
2023-03-12T04:52:42.166Z,7.85
2023-03-12T04:56:44.408Z,7.87
2023-03-12T05:00:48.610Z,7.83
2023-03-12T05:04:50.989Z,7.64
2023-03-12T05:08:53.380Z,7.65
2023-03-12T05:12:55.869Z,7.73
2023-03-12T05:16:58.216Z,7.76
2023-03-12T05:21:07.277Z,7.68
2023-03-12T05:25:10.536Z,7.68
2023-03-12T05:29:12.733Z,7.65
2023-03-12T05:33:15.590Z,7.66
2023-03-12T05:37:17.895Z,7.47
2023-03-12T05:41:26.406Z,7.51
2023-03-12T05:45:33.310Z,7.51
2023-03-12T05:49:35.895Z,7.53
2023-03-12T05:53:38.302Z,7.36
2023-03-12T05:57:41.412Z,7.56
2023-03-12T06:01:44.884Z,7.74
2023-03-12T06:05:48.618Z,7.92
2023-03-12T06:09:50.792Z,8.11
2023-03-12T06:13:53.202Z,8.33
2023-03-12T06:17:55.416Z,8.55
2023-03-12T06:21:58.312Z,8.65
2023-03-12T06:26:02.372Z,8.76
2023-03-12T06:30:05.475Z,8.49
2023-03-12T06:34:08.325Z,8.69
2023-03-12T06:38:10.430Z,8.87
2023-03-12T06:42:14.769Z,8.93
2023-03-12T06:46:19.259Z,8.96
2023-03-12T06:50:21.600Z,9.06
2023-03-12T06:54:23.678Z,9.13
2023-03-12T06:58:26.219Z,9.29
2023-03-12T07:02:28.406Z,9.44
2023-03-12T07:06:30.533Z,9.58
2023-03-12T07:10:33.259Z,9.74
2023-03-12T07:14:35.272Z,9.91
2023-03-12T07:18:37.827Z,10.02
2023-03-12T07:22:40.301Z,10.15
2023-03-12T07:26:43.797Z,10.32
2023-03-12T07:30:50.623Z,10.85
2023-03-12T07:34:52.756Z,11.16
2023-03-12T07:38:54.879Z,11.24
2023-03-12T07:42:57.381Z,11.40
2023-03-12T07:47:09.690Z,12.04
2023-03-12T07:51:18.977Z,12.37
2023-03-12T07:55:21.285Z,12.59
2023-03-12T07:59:24.058Z,12.89
2023-03-12T08:03:26.950Z,13.03
2023-03-12T08:07:32.550Z,13.21
2023-03-12T08:11:34.666Z,13.34
2023-03-12T08:15:36.783Z,13.46
2023-03-12T08:19:39.065Z,13.47
2023-03-12T08:23:41.219Z,13.60
2023-03-12T08:27:43.453Z,13.73
2023-03-12T08:32:03.470Z,13.79
2023-03-12T08:36:07.084Z,13.82
2023-03-12T08:40:13.540Z,13.90
2023-03-12T08:44:16.275Z,14.03
2023-03-12T08:48:18.512Z,14.04
2023-03-12T08:52:20.907Z,14.06
2023-03-12T08:56:23.097Z,14.20
2023-03-12T09:00:25.865Z,14.34
2023-03-12T09:04:28.700Z,14.45
2023-03-12T09:08:34.099Z,14.48
2023-03-12T09:12:36.923Z,14.59
2023-03-12T09:16:39.197Z,14.58
2023-03-12T09:20:43.008Z,14.71
2023-03-12T09:24:49.187Z,14.67
2023-03-12T09:28:52.560Z,14.74
2023-03-12T09:32:54.989Z,14.76
2023-03-12T09:36:57.375Z,14.78
2023-03-12T09:41:00.954Z,14.81
2023-03-12T09:45:12.218Z,14.84
2023-03-12T09:49:31.247Z,14.98
2023-03-12T09:53:42.710Z,15.07
2023-03-12T09:57:46.527Z,15.05
2023-03-12T10:01:57.733Z,15.10
2023-03-12T10:06:01.626Z,15.16
2023-03-12T10:10:13.033Z,15.16
2023-03-12T10:14:40.874Z,15.26
2023-03-12T10:18:48.243Z,15.31
2023-03-12T10:23:23.568Z,15.23
2023-03-12T10:27:29.989Z,15.39
2023-03-12T10:31:44.031Z,15.39
2023-03-12T10:35:47.714Z,15.47
2023-03-12T10:39:52.151Z,15.60
2023-03-12T10:43:55.622Z,15.70
2023-03-12T10:48:03.158Z,15.76
2023-03-12T10:52:20.807Z,15.82
2023-03-12T10:56:26.632Z,15.75
2023-03-12T11:00:32.385Z,15.86
2023-03-12T11:04:35.028Z,16.08
2023-03-12T11:08:37.919Z,16.07
2023-03-12T11:13:02.851Z,16.21
2023-03-12T11:17:23.411Z,16.28
2023-03-12T11:21:29.499Z,16.34
2023-03-12T11:25:34.471Z,16.45
2023-03-12T11:29:44.918Z,16.58
2023-03-12T11:33:50.734Z,16.65
2023-03-12T11:38:15.075Z,16.67
2023-03-12T11:42:36.705Z,16.81
2023-03-12T11:46:54.455Z,16.85
2023-03-12T11:51:36.041Z,17.02
2023-03-12T11:55:56.735Z,17.12
2023-03-12T12:00:27.210Z,17.21
2023-03-12T12:05:28.684Z,17.22
2023-03-12T12:09:41.708Z,17.11
2023-03-12T12:14:14.173Z,17.17
2023-03-12T12:18:27.836Z,17.19
2023-03-12T12:23:06.851Z,17.27
2023-03-12T12:27:29.442Z,17.47
2023-03-12T12:32:25.399Z,17.70
2023-03-12T12:36:39.519Z,17.79
2023-03-12T12:41:00.082Z,17.86
2023-03-12T12:45:13.528Z,17.91
2023-03-12T12:49:47.198Z,17.79
2023-03-12T12:54:21.342Z,17.61
2023-03-12T12:58:44.950Z,17.58
2023-03-12T13:02:53.101Z,17.74
2023-03-12T13:07:28.698Z,17.93
2023-03-12T13:11:45.385Z,17.94
2023-03-12T13:15:55.351Z,18.01
2023-03-12T13:20:27.182Z,18.07
2023-03-12T13:24:44.390Z,18.27
2023-03-12T13:29:19.199Z,18.36
2023-03-12T13:33:50.146Z,18.47
2023-03-12T13:38:04.233Z,18.58
2023-03-12T13:42:39.821Z,18.66
2023-03-12T13:47:00.283Z,18.82
2023-03-12T13:51:25.525Z,18.93
2023-03-12T13:55:39.127Z,19.15
2023-03-12T13:59:46.509Z,19.33
2023-03-12T14:04:00.698Z,19.49
2023-03-12T14:08:59.509Z,19.47
2023-03-12T14:13:54.119Z,19.50
2023-03-12T14:18:24.102Z,19.30
2023-03-12T14:22:40.478Z,19.27
2023-03-12T14:26:51.733Z,19.42
2023-03-12T14:31:10.496Z,19.55
2023-03-12T14:35:50.397Z,19.61
2023-03-12T14:40:01.741Z,19.58
2023-03-12T14:44:26.417Z,19.54
2023-03-12T14:48:43.556Z,19.68
2023-03-12T14:52:51.854Z,19.47
2023-03-12T14:57:03.162Z,19.45
2023-03-12T15:01:16.720Z,19.63
2023-03-12T15:05:27.561Z,19.38
2023-03-12T15:09:37.877Z,19.53
2023-03-12T15:13:46.720Z,19.54
2023-03-12T15:17:59.418Z,19.40
2023-03-12T15:22:18.752Z,19.46
2023-03-12T15:26:32.416Z,19.62
2023-03-12T15:30:40.204Z,19.42
2023-03-12T15:34:51.952Z,19.42
2023-03-12T15:39:13.849Z,19.41
2023-03-12T15:43:27.759Z,19.31
2023-03-12T15:47:40.873Z,19.27
2023-03-12T15:52:09.739Z,19.23
2023-03-12T15:56:25.805Z,19.22
2023-03-12T16:00:47.565Z,19.26
2023-03-12T16:04:56.752Z,19.23
2023-03-12T16:09:08.065Z,19.22
2023-03-12T16:13:16.109Z,19.36
2023-03-12T16:17:21.054Z,19.28
2023-03-12T16:21:25.163Z,19.45
2023-03-12T16:25:29.037Z,19.72
2023-03-12T16:29:39.412Z,19.83
2023-03-12T16:33:44.067Z,19.93
2023-03-12T16:37:49.001Z,20.04
2023-03-12T16:42:00.109Z,19.96
2023-03-12T16:46:09.193Z,19.75
2023-03-12T16:50:19.642Z,19.62
2023-03-12T16:54:25.029Z,19.32
2023-03-12T16:58:31.452Z,18.90
2023-03-12T17:02:36.344Z,18.17
2023-03-12T17:06:40.512Z,17.66
2023-03-12T17:10:42.935Z,17.30
2023-03-12T17:14:46.925Z,16.77
2023-03-12T17:18:49.218Z,16.50
2023-03-12T17:22:51.837Z,16.18
2023-03-12T17:26:56.836Z,15.82
2023-03-12T17:30:59.984Z,15.54
2023-03-12T17:35:07.006Z,15.37
2023-03-12T17:39:09.439Z,15.07
2023-03-12T17:43:12.229Z,14.77
2023-03-12T17:47:14.540Z,14.59
2023-03-12T17:51:19.434Z,14.53
2023-03-12T17:55:22.849Z,14.27
2023-03-12T17:59:25.153Z,14.07
2023-03-12T18:03:27.483Z,14.13
2023-03-12T18:07:29.811Z,13.99
2023-03-12T18:11:32.235Z,13.83
2023-03-12T18:15:34.449Z,13.64
2023-03-12T18:19:36.597Z,13.56
2023-03-12T18:23:38.919Z,13.39
2023-03-12T18:27:41.588Z,13.28
2023-03-12T18:31:44.626Z,13.04
2023-03-12T18:35:47.355Z,12.93
2023-03-12T18:39:50.035Z,12.81
2023-03-12T18:43:53.993Z,12.57
2023-03-12T18:47:56.530Z,12.48
2023-03-12T18:51:58.755Z,12.31
2023-03-12T18:56:01.223Z,12.18
2023-03-12T19:00:04.716Z,11.82
2023-03-12T19:04:07.243Z,11.85
2023-03-12T19:08:10.324Z,11.84
2023-03-12T19:12:12.933Z,11.85
2023-03-12T19:16:18.826Z,11.79
2023-03-12T19:20:21.787Z,11.65
2023-03-12T19:24:24.492Z,11.61
2023-03-12T19:28:27.963Z,11.38
2023-03-12T19:32:43.204Z,11.13
2023-03-12T19:36:46.751Z,11.25
2023-03-12T19:40:59.292Z,11.32
2023-03-12T19:45:02.690Z,11.08
2023-03-12T19:49:06.305Z,10.98
2023-03-12T19:53:08.704Z,10.93
2023-03-12T19:57:10.962Z,10.74
2023-03-12T20:01:13.246Z,10.69
2023-03-12T20:05:16.148Z,10.42
2023-03-12T20:09:18.505Z,10.39
2023-03-12T20:13:21.028Z,10.27
2023-03-12T20:17:23.560Z,10.24
2023-03-12T20:21:25.731Z,10.09
2023-03-12T20:25:27.810Z,10.08
2023-03-12T20:29:30.480Z,9.97
2023-03-12T20:33:33.161Z,9.94
2023-03-12T20:37:37.210Z,9.99
2023-03-12T20:41:40.624Z,9.96
2023-03-12T20:45:48.161Z,9.92
2023-03-12T20:49:50.517Z,9.96
2023-03-12T20:53:52.707Z,9.91
2023-03-12T20:57:54.786Z,9.82
2023-03-12T21:01:58.194Z,9.80
2023-03-12T21:06:02.534Z,9.65
2023-03-12T21:10:05.288Z,9.58
2023-03-12T21:14:07.997Z,9.50
2023-03-12T21:18:10.681Z,9.51
2023-03-12T21:22:13.253Z,9.54
2023-03-12T21:26:15.561Z,9.56
2023-03-12T21:30:18.884Z,9.46
2023-03-12T21:34:23.324Z,9.49
2023-03-12T21:38:25.491Z,9.48
2023-03-12T21:42:28.494Z,9.46
2023-03-12T21:46:31.156Z,9.33
2023-03-12T21:50:33.950Z,9.02
2023-03-12T21:54:37.476Z,8.83
2023-03-12T21:58:42.394Z,8.70
2023-03-12T22:02:45.910Z,8.80
2023-03-12T22:06:48.086Z,8.74
2023-03-12T22:10:50.149Z,8.68
2023-03-12T22:14:53.305Z,8.73
2023-03-12T22:18:57.089Z,8.76
2023-03-12T22:22:59.927Z,8.75
2023-03-12T22:27:03.556Z,8.73
2023-03-12T22:31:08.280Z,8.68
2023-03-12T22:35:10.549Z,8.43
2023-03-12T22:39:12.858Z,8.33
2023-03-12T22:43:16.145Z,8.25
2023-03-12T22:47:18.344Z,8.30
2023-03-12T22:51:20.427Z,8.26
2023-03-12T22:55:22.634Z,8.30
2023-03-12T22:59:24.887Z,8.21
2023-03-12T23:03:28.587Z,8.13
2023-03-12T23:07:30.932Z,8.10
2023-03-12T23:11:33.099Z,7.93
2023-03-12T23:15:41.538Z,7.59
2023-03-12T23:19:44.250Z,7.24
2023-03-12T23:23:47.740Z,7.40
2023-03-12T23:27:49.882Z,7.49
2023-03-12T23:31:52.397Z,7.50
2023-03-12T23:36:06.070Z,7.53
2023-03-12T23:40:11.219Z,7.42
2023-03-12T23:44:13.320Z,7.42
2023-03-12T23:48:15.474Z,7.30
2023-03-12T23:52:17.608Z,6.82
2023-03-12T23:56:22.868Z,6.83
